ACA2040 CYUL-CYQM
Flight info
| Callsign | ACA2040 |
|---|---|
| Flight time | 1h 4m |
| Altitude | 37000 |
| Route | SUXET DCT NOVUN DCT ESRAM DCT RABIK Q951 PUXOP |
| Aircraft | A320/M-SDE3FGHIRWY/LB1 |
Departure
| Time | 2026-05-04 22:24 |
|---|---|
| Airport | Montreal / Pierre Elliott Trudeau International Airport (CYUL) |
Arrival
| Time | 2026-05-04 23:29 |
|---|---|
| Airport | Greater Moncton Roméo LeBlanc International Airport (CYQM) |
| Time | Latitude | Longitude | Altitude | Speed | Heading |
|---|---|---|---|---|---|
| 2026-05-04 21:35 | 45.45885 | -73.74492 | 105 ft | 0 kts | 178° |
| 2026-05-04 22:10 | 45.45897 | -73.74492 | 104 ft | 3 kts | 177° |
| 2026-05-04 22:11 | 45.45918 | -73.74494 | 104 ft | 3 kts | 174° |
| 2026-05-04 22:11 | 45.45938 | -73.74497 | 104 ft | 3 kts | 168° |
| 2026-05-04 22:11 | 45.45957 | -73.74505 | 103 ft | 3 kts | 149° |
| 2026-05-04 22:11 | 45.45969 | -73.74519 | 103 ft | 3 kts | 98° |
| 2026-05-04 22:12 | 45.45970 | -73.74527 | 104 ft | 0 kts | 76° |
| 2026-05-04 22:14 | 45.45970 | -73.74524 | 104 ft | 1 kts | 76° |
| 2026-05-04 22:14 | 45.45971 | -73.74519 | 104 ft | 1 kts | 76° |
| 2026-05-04 22:15 | 45.45973 | -73.74508 | 104 ft | 2 kts | 75° |
| 2026-05-04 22:15 | 45.45978 | -73.74484 | 104 ft | 3 kts | 71° |
| 2026-05-04 22:15 | 45.45986 | -73.74459 | 103 ft | 3 kts | 66° |
| 2026-05-04 22:15 | 45.45994 | -73.74435 | 104 ft | 3 kts | 63° |
| 2026-05-04 22:16 | 45.46005 | -73.74410 | 103 ft | 3 kts | 56° |
| 2026-05-04 22:16 | 45.46019 | -73.74383 | 103 ft | 3 kts | 52° |
| 2026-05-04 22:16 | 45.46032 | -73.74358 | 103 ft | 3 kts | 52° |
| 2026-05-04 22:16 | 45.46044 | -73.74337 | 103 ft | 3 kts | 50° |
| 2026-05-04 22:17 | 45.46060 | -73.74311 | 102 ft | 7 kts | 50° |
| 2026-05-04 22:17 | 45.46125 | -73.74214 | 103 ft | 16 kts | 47° |
| 2026-05-04 22:17 | 45.46140 | -73.74086 | 105 ft | 12 kts | 84° |
| 2026-05-04 22:17 | 45.46185 | -73.73999 | 105 ft | 11 kts | 44° |
| 2026-05-04 22:18 | 45.46236 | -73.73931 | 104 ft | 9 kts | 43° |
| 2026-05-04 22:18 | 45.46279 | -73.73875 | 106 ft | 8 kts | 43° |
| 2026-05-04 22:18 | 45.46314 | -73.73829 | 107 ft | 7 kts | 42° |
| 2026-05-04 22:18 | 45.46386 | -73.73736 | 108 ft | 21 kts | 41° |
| 2026-05-04 22:19 | 45.46506 | -73.73575 | 108 ft | 24 kts | 39° |
| 2026-05-04 22:19 | 45.46628 | -73.73417 | 111 ft | 23 kts | 44° |
| 2026-05-04 22:19 | 45.46741 | -73.73269 | 113 ft | 21 kts | 43° |
| 2026-05-04 22:19 | 45.46841 | -73.73137 | 114 ft | 18 kts | 42° |
| 2026-05-04 22:20 | 45.46930 | -73.73021 | 115 ft | 16 kts | 43° |
| 2026-05-04 22:20 | 45.47008 | -73.72918 | 117 ft | 14 kts | 42° |
| 2026-05-04 22:20 | 45.47078 | -73.72827 | 118 ft | 13 kts | 43° |
| 2026-05-04 22:20 | 45.47141 | -73.72745 | 115 ft | 12 kts | 42° |
| 2026-05-04 22:21 | 45.47198 | -73.72671 | 117 ft | 10 kts | 43° |
| 2026-05-04 22:21 | 45.47259 | -73.72589 | 118 ft | 16 kts | 43° |
| 2026-05-04 22:21 | 45.47360 | -73.72456 | 118 ft | 24 kts | 42° |
| 2026-05-04 22:21 | 45.47502 | -73.72273 | 115 ft | 31 kts | 43° |
| 2026-05-04 22:22 | 45.47658 | -73.72066 | 118 ft | 31 kts | 43° |
| 2026-05-04 22:22 | 45.47800 | -73.71881 | 122 ft | 14 kts | 43° |
| 2026-05-04 22:22 | 45.47839 | -73.71830 | 122 ft | 7 kts | 42° |
| 2026-05-04 22:22 | 45.47871 | -73.71741 | 122 ft | 13 kts | 112° |
| 2026-05-04 22:23 | 45.47820 | -73.71643 | 123 ft | 11 kts | 133° |
| 2026-05-04 22:23 | 45.47769 | -73.71573 | 124 ft | 8 kts | 144° |
| 2026-05-04 22:23 | 45.47727 | -73.71569 | 124 ft | 5 kts | 204° |
| 2026-05-04 22:23 | 45.47689 | -73.71621 | 121 ft | 14 kts | 223° |
| 2026-05-04 22:24 | 45.47487 | -73.71889 | 123 ft | 75 kts | 224° |
| 2026-05-04 22:24 | 45.46934 | -73.72613 | 117 ft | 138 kts | 223° |
| 2026-05-04 22:24 | 45.46155 | -73.73653 | 508 ft | 155 kts | 226° |
| 2026-05-04 22:24 | 45.45386 | -73.74732 | 1360 ft | 155 kts | 223° |
| 2026-05-04 22:25 | 45.44593 | -73.75823 | 2055 ft | 169 kts | 223° |
| 2026-05-04 22:25 | 45.43684 | -73.77053 | 2484 ft | 193 kts | 223° |
| 2026-05-04 22:25 | 45.43010 | -73.77956 | 2785 ft | 209 kts | 224° |
| 2026-05-04 22:25 | 45.41891 | -73.79457 | 3323 ft | 233 kts | 224° |
| 2026-05-04 22:26 | 45.40677 | -73.81086 | 4130 ft | 244 kts | 226° |
| 2026-05-04 22:26 | 45.39401 | -73.82681 | 4797 ft | 245 kts | 217° |
| 2026-05-04 22:26 | 45.37775 | -73.83530 | 5471 ft | 259 kts | 192° |
| 2026-05-04 22:26 | 45.35933 | -73.83200 | 6442 ft | 281 kts | 165° |
| 2026-05-04 22:27 | 45.34329 | -73.81465 | 7318 ft | 304 kts | 131° |
| 2026-05-04 22:27 | 45.33387 | -73.78756 | 8208 ft | 314 kts | 113° |
| 2026-05-04 22:27 | 45.32710 | -73.75782 | 9146 ft | 319 kts | 108° |
| 2026-05-04 22:27 | 45.32131 | -73.72716 | 10022 ft | 323 kts | 106° |
| 2026-05-04 22:28 | 45.31559 | -73.69542 | 10496 ft | 343 kts | 106° |
| 2026-05-04 22:28 | 45.30934 | -73.66160 | 10896 ft | 362 kts | 107° |
| 2026-05-04 22:28 | 45.30257 | -73.62673 | 11616 ft | 369 kts | 107° |
| 2026-05-04 22:28 | 45.29543 | -73.59151 | 12415 ft | 374 kts | 108° |
| 2026-05-04 22:29 | 45.28796 | -73.55591 | 13221 ft | 378 kts | 108° |
| 2026-05-04 22:29 | 45.28030 | -73.51996 | 13962 ft | 382 kts | 108° |
| 2026-05-04 22:29 | 45.27252 | -73.48364 | 14649 ft | 387 kts | 108° |
| 2026-05-04 22:29 | 45.26468 | -73.44696 | 15336 ft | 391 kts | 108° |
| 2026-05-04 22:30 | 45.25678 | -73.40972 | 16021 ft | 396 kts | 108° |
| 2026-05-04 22:30 | 45.24880 | -73.37207 | 16688 ft | 400 kts | 108° |
| 2026-05-04 22:30 | 45.24074 | -73.33409 | 17359 ft | 404 kts | 108° |
| 2026-05-04 22:30 | 45.23255 | -73.29572 | 18023 ft | 409 kts | 108° |
| 2026-05-04 22:31 | 45.22421 | -73.25688 | 18613 ft | 413 kts | 107° |
| 2026-05-04 22:31 | 45.21584 | -73.21778 | 19211 ft | 416 kts | 107° |
| 2026-05-04 22:31 | 45.20862 | -73.17834 | 19781 ft | 421 kts | 99° |
| 2026-05-04 22:31 | 45.20576 | -73.13640 | 20381 ft | 423 kts | 89° |
| 2026-05-04 22:32 | 45.20675 | -73.09512 | 20970 ft | 426 kts | 85° |
| 2026-05-04 22:32 | 45.20804 | -73.05302 | 21566 ft | 429 kts | 84° |
| 2026-05-04 22:32 | 45.21194 | -73.01106 | 22159 ft | 429 kts | 74° |
| 2026-05-04 22:32 | 45.22055 | -72.97065 | 22753 ft | 429 kts | 64° |
| 2026-05-04 22:33 | 45.23368 | -72.93278 | 23329 ft | 427 kts | 56° |
| 2026-05-04 22:33 | 45.24845 | -72.89604 | 23807 ft | 430 kts | 55° |
| 2026-05-04 22:33 | 45.26328 | -72.85894 | 24291 ft | 433 kts | 55° |
| 2026-05-04 22:33 | 45.27767 | -72.82124 | 24784 ft | 438 kts | 60° |
| 2026-05-04 22:34 | 45.28824 | -72.78025 | 25243 ft | 447 kts | 71° |
| 2026-05-04 22:34 | 45.29384 | -72.73647 | 25704 ft | 455 kts | 81° |
| 2026-05-04 22:34 | 45.29574 | -72.69143 | 26137 ft | 459 kts | 83° |
| 2026-05-04 22:34 | 45.29748 | -72.64605 | 26564 ft | 461 kts | 82° |
| 2026-05-04 22:35 | 45.29927 | -72.60043 | 26969 ft | 464 kts | 82° |
| 2026-05-04 22:35 | 45.30139 | -72.55460 | 27387 ft | 466 kts | 81° |
| 2026-05-04 22:35 | 45.30393 | -72.50855 | 27786 ft | 469 kts | 80° |
| 2026-05-04 22:35 | 45.30670 | -72.46227 | 28176 ft | 471 kts | 80° |
| 2026-05-04 22:36 | 45.30950 | -72.41576 | 28550 ft | 474 kts | 80° |
| 2026-05-04 22:36 | 45.31224 | -72.36898 | 28929 ft | 477 kts | 80° |
| 2026-05-04 22:36 | 45.31494 | -72.32179 | 29285 ft | 481 kts | 80° |
| 2026-05-04 22:36 | 45.31753 | -72.27425 | 29607 ft | 484 kts | 80° |
| 2026-05-04 22:37 | 45.32005 | -72.22641 | 29941 ft | 487 kts | 80° |
| 2026-05-04 22:37 | 45.32247 | -72.17900 | 30223 ft | 489 kts | 80° |
| 2026-05-04 22:37 | 45.32492 | -72.13069 | 30528 ft | 491 kts | 80° |
| 2026-05-04 22:37 | 45.32738 | -72.08228 | 30809 ft | 492 kts | 80° |
| 2026-05-04 22:38 | 45.32985 | -72.03370 | 31077 ft | 494 kts | 80° |
| 2026-05-04 22:38 | 45.33232 | -71.98492 | 31348 ft | 495 kts | 80° |
| 2026-05-04 22:38 | 45.33479 | -71.93605 | 31687 ft | 495 kts | 80° |
| 2026-05-04 22:38 | 45.33724 | -71.88732 | 32083 ft | 494 kts | 80° |
| 2026-05-04 22:39 | 45.34009 | -71.83872 | 32425 ft | 492 kts | 77° |
| 2026-05-04 22:39 | 45.34431 | -71.79056 | 32794 ft | 489 kts | 75° |
| 2026-05-04 22:39 | 45.34959 | -71.74302 | 33169 ft | 487 kts | 73° |
| 2026-05-04 22:39 | 45.35545 | -71.69571 | 33549 ft | 485 kts | 72° |
| 2026-05-04 22:40 | 45.36140 | -71.64850 | 33902 ft | 484 kts | 73° |
| 2026-05-04 22:40 | 45.36714 | -71.60132 | 34204 ft | 484 kts | 74° |
| 2026-05-04 22:40 | 45.37257 | -71.55392 | 34502 ft | 485 kts | 75° |
| 2026-05-04 22:40 | 45.37767 | -71.50658 | 34786 ft | 485 kts | 76° |
| 2026-05-04 22:41 | 45.38254 | -71.45981 | 35051 ft | 485 kts | 76° |
| 2026-05-04 22:41 | 45.38741 | -71.41228 | 35314 ft | 485 kts | 77° |
| 2026-05-04 22:41 | 45.39228 | -71.36483 | 35575 ft | 485 kts | 77° |
| 2026-05-04 22:41 | 45.39721 | -71.31732 | 35837 ft | 485 kts | 77° |
| 2026-05-04 22:42 | 45.40217 | -71.26992 | 36099 ft | 484 kts | 77° |
| 2026-05-04 22:42 | 45.40715 | -71.22260 | 36373 ft | 484 kts | 77° |
| 2026-05-04 22:42 | 45.41215 | -71.17520 | 36604 ft | 484 kts | 78° |
| 2026-05-04 22:42 | 45.41713 | -71.12782 | 36766 ft | 485 kts | 78° |
| 2026-05-04 22:43 | 45.42203 | -71.08046 | 36804 ft | 483 kts | 78° |
| 2026-05-04 22:43 | 45.43087 | -70.98558 | 36802 ft | 484 kts | 81° |
| 2026-05-04 22:44 | 45.43574 | -70.88984 | 36804 ft | 486 kts | 84° |
| 2026-05-04 22:44 | 45.43879 | -70.79375 | 36803 ft | 486 kts | 84° |
| 2026-05-04 22:45 | 45.44240 | -70.69763 | 36804 ft | 486 kts | 83° |
| 2026-05-04 22:45 | 45.45242 | -70.55435 | 36804 ft | 484 kts | 78° |
| 2026-05-04 22:46 | 45.46343 | -70.45964 | 36795 ft | 485 kts | 77° |
| 2026-05-04 22:46 | 45.47403 | -70.36475 | 36809 ft | 486 kts | 78° |
| 2026-05-04 22:47 | 45.48345 | -70.26939 | 36798 ft | 487 kts | 79° |
| 2026-05-04 22:47 | 45.49241 | -70.17374 | 36803 ft | 487 kts | 79° |
| 2026-05-04 22:48 | 45.50141 | -70.07866 | 36797 ft | 487 kts | 79° |
| 2026-05-04 22:48 | 45.51073 | -69.98229 | 36796 ft | 488 kts | 79° |
| 2026-05-04 22:49 | 45.51985 | -69.88714 | 36798 ft | 488 kts | 79° |
| 2026-05-04 22:49 | 45.52886 | -69.79114 | 36798 ft | 488 kts | 80° |
| 2026-05-04 22:50 | 45.53775 | -69.69512 | 36800 ft | 488 kts | 80° |
| 2026-05-04 22:50 | 45.54659 | -69.59902 | 36820 ft | 488 kts | 80° |
| 2026-05-04 22:51 | 45.55536 | -69.50289 | 36809 ft | 489 kts | 80° |
| 2026-05-04 22:51 | 45.56411 | -69.40665 | 36813 ft | 489 kts | 80° |
| 2026-05-04 22:52 | 45.57275 | -69.31033 | 36807 ft | 489 kts | 80° |
| 2026-05-04 22:52 | 45.58132 | -69.21400 | 36805 ft | 489 kts | 81° |
| 2026-05-04 22:53 | 45.58984 | -69.11761 | 36805 ft | 489 kts | 81° |
| 2026-05-04 22:53 | 45.59826 | -69.02115 | 36801 ft | 490 kts | 81° |
| 2026-05-04 22:54 | 45.60649 | -68.92530 | 36801 ft | 490 kts | 81° |
| 2026-05-04 22:54 | 45.61470 | -68.82871 | 36819 ft | 490 kts | 81° |
| 2026-05-04 22:55 | 45.62284 | -68.73189 | 36800 ft | 491 kts | 81° |
| 2026-05-04 22:55 | 45.63100 | -68.63506 | 36795 ft | 491 kts | 81° |
| 2026-05-04 22:56 | 45.63910 | -68.53812 | 36794 ft | 491 kts | 81° |
| 2026-05-04 22:56 | 45.64699 | -68.44114 | 36799 ft | 492 kts | 81° |
| 2026-05-04 22:57 | 45.65481 | -68.34402 | 36803 ft | 492 kts | 82° |
| 2026-05-04 22:57 | 45.66260 | -68.24693 | 36811 ft | 491 kts | 82° |
| 2026-05-04 22:58 | 45.67034 | -68.14980 | 36814 ft | 491 kts | 82° |
| 2026-05-04 22:58 | 45.67801 | -68.05280 | 36830 ft | 491 kts | 82° |
| 2026-05-04 22:59 | 45.68556 | -67.95583 | 36820 ft | 490 kts | 82° |
| 2026-05-04 22:59 | 45.69293 | -67.85885 | 36811 ft | 490 kts | 83° |
| 2026-05-04 23:00 | 45.70460 | -67.76325 | 36816 ft | 487 kts | 73° |
| 2026-05-04 23:00 | 45.72216 | -67.67029 | 36799 ft | 488 kts | 73° |
| 2026-05-04 23:01 | 45.73969 | -67.57652 | 36793 ft | 488 kts | 73° |
| 2026-05-04 23:01 | 45.75711 | -67.48235 | 36815 ft | 488 kts | 74° |
| 2026-05-04 23:02 | 45.77442 | -67.38823 | 36778 ft | 489 kts | 74° |
| 2026-05-04 23:02 | 45.79229 | -67.29401 | 36770 ft | 490 kts | 72° |
| 2026-05-04 23:03 | 45.81145 | -67.20004 | 36763 ft | 491 kts | 72° |
| 2026-05-04 23:03 | 45.83097 | -67.10603 | 36763 ft | 492 kts | 72° |
| 2026-05-04 23:04 | 45.85011 | -67.01189 | 36670 ft | 493 kts | 72° |
| 2026-05-04 23:04 | 45.85953 | -66.96459 | 36434 ft | 492 kts | 72° |
| 2026-05-04 23:04 | 45.86888 | -66.91733 | 36107 ft | 492 kts | 72° |
| 2026-05-04 23:05 | 45.87815 | -66.87049 | 35136 ft | 499 kts | 72° |
| 2026-05-04 23:05 | 45.88769 | -66.82232 | 34178 ft | 505 kts | 72° |
| 2026-05-04 23:05 | 45.89731 | -66.77383 | 33535 ft | 502 kts | 72° |
| 2026-05-04 23:05 | 45.90684 | -66.72574 | 32854 ft | 499 kts | 72° |
| 2026-05-04 23:06 | 45.91627 | -66.67802 | 32206 ft | 495 kts | 71° |
| 2026-05-04 23:06 | 45.92558 | -66.63070 | 31558 ft | 491 kts | 71° |
| 2026-05-04 23:06 | 45.93482 | -66.58356 | 30923 ft | 488 kts | 71° |
| 2026-05-04 23:06 | 45.94399 | -66.53679 | 30281 ft | 485 kts | 70° |
| 2026-05-04 23:07 | 45.95311 | -66.49030 | 29631 ft | 482 kts | 70° |
| 2026-05-04 23:07 | 45.96216 | -66.44410 | 29015 ft | 477 kts | 71° |
| 2026-05-04 23:07 | 45.97106 | -66.39842 | 28387 ft | 472 kts | 71° |
| 2026-05-04 23:07 | 45.97983 | -66.35323 | 27812 ft | 467 kts | 71° |
| 2026-05-04 23:08 | 45.98848 | -66.30848 | 27250 ft | 462 kts | 71° |
| 2026-05-04 23:08 | 45.99699 | -66.26417 | 26695 ft | 457 kts | 71° |
| 2026-05-04 23:08 | 46.00544 | -66.22029 | 26159 ft | 453 kts | 71° |
| 2026-05-04 23:08 | 46.01384 | -66.17680 | 25634 ft | 449 kts | 71° |
| 2026-05-04 23:09 | 46.02213 | -66.13366 | 25079 ft | 446 kts | 71° |
| 2026-05-04 23:09 | 46.03033 | -66.09084 | 24548 ft | 443 kts | 71° |
| 2026-05-04 23:09 | 46.03848 | -66.04816 | 23998 ft | 442 kts | 71° |
| 2026-05-04 23:09 | 46.04659 | -66.00563 | 23436 ft | 441 kts | 71° |
| 2026-05-04 23:10 | 46.05469 | -65.96307 | 22804 ft | 440 kts | 71° |
| 2026-05-04 23:10 | 46.06262 | -65.92128 | 22343 ft | 435 kts | 72° |
| 2026-05-04 23:10 | 46.07049 | -65.87953 | 21772 ft | 432 kts | 73° |
| 2026-05-04 23:10 | 46.07838 | -65.83775 | 21263 ft | 429 kts | 73° |
| 2026-05-04 23:11 | 46.08610 | -65.79657 | 20812 ft | 424 kts | 73° |
| 2026-05-04 23:11 | 46.09373 | -65.75570 | 20280 ft | 422 kts | 73° |
| 2026-05-04 23:11 | 46.10133 | -65.71497 | 19769 ft | 419 kts | 73° |
| 2026-05-04 23:11 | 46.10891 | -65.67471 | 19280 ft | 415 kts | 73° |
| 2026-05-04 23:12 | 46.11647 | -65.63467 | 18794 ft | 412 kts | 73° |
| 2026-05-04 23:12 | 46.12393 | -65.59495 | 18321 ft | 409 kts | 73° |
| 2026-05-04 23:12 | 46.13127 | -65.55562 | 18053 ft | 400 kts | 73° |
| 2026-05-04 23:12 | 46.13833 | -65.51740 | 17913 ft | 388 kts | 73° |
| 2026-05-04 23:13 | 46.14510 | -65.48052 | 17703 ft | 372 kts | 73° |
| 2026-05-04 23:13 | 46.15165 | -65.44499 | 17125 ft | 363 kts | 73° |
| 2026-05-04 23:13 | 46.15815 | -65.40996 | 16460 ft | 359 kts | 73° |
| 2026-05-04 23:13 | 46.16455 | -65.37539 | 15804 ft | 355 kts | 72° |
| 2026-05-04 23:14 | 46.16874 | -65.35264 | 15362 ft | 353 kts | 72° |
| 2026-05-04 23:14 | 46.17499 | -65.31860 | 14739 ft | 350 kts | 72° |
| 2026-05-04 23:14 | 46.18120 | -65.28478 | 14112 ft | 347 kts | 72° |
| 2026-05-04 23:14 | 46.18744 | -65.25081 | 13574 ft | 353 kts | 72° |
| 2026-05-04 23:15 | 46.19555 | -65.20599 | 13240 ft | 344 kts | 72° |
| 2026-05-04 23:15 | 46.20159 | -65.17273 | 12891 ft | 342 kts | 72° |
| 2026-05-04 23:15 | 46.20565 | -65.15035 | 12650 ft | 340 kts | 72° |
| 2026-05-04 23:15 | 46.21162 | -65.11751 | 12195 ft | 337 kts | 72° |
| 2026-05-04 23:16 | 46.21756 | -65.08494 | 11735 ft | 334 kts | 72° |
| 2026-05-04 23:16 | 46.22346 | -65.05264 | 11272 ft | 332 kts | 72° |
| 2026-05-04 23:16 | 46.22929 | -65.02052 | 10817 ft | 329 kts | 72° |
| 2026-05-04 23:16 | 46.23502 | -64.98869 | 10380 ft | 327 kts | 73° |
| 2026-05-04 23:17 | 46.24072 | -64.95699 | 10065 ft | 325 kts | 73° |
| 2026-05-04 23:17 | 46.24638 | -64.92546 | 10007 ft | 324 kts | 73° |
| 2026-05-04 23:17 | 46.25203 | -64.89381 | 10028 ft | 325 kts | 73° |
| 2026-05-04 23:17 | 46.25772 | -64.86202 | 9591 ft | 327 kts | 73° |
| 2026-05-04 23:18 | 46.26324 | -64.83129 | 9117 ft | 315 kts | 73° |
| 2026-05-04 23:18 | 46.26872 | -64.80050 | 8430 ft | 310 kts | 73° |
| 2026-05-04 23:18 | 46.27406 | -64.77049 | 7778 ft | 306 kts | 73° |
| 2026-05-04 23:18 | 46.27933 | -64.74092 | 7115 ft | 302 kts | 73° |
| 2026-05-04 23:19 | 46.28444 | -64.71200 | 6471 ft | 299 kts | 73° |
| 2026-05-04 23:19 | 46.28963 | -64.68300 | 5714 ft | 298 kts | 70° |
| 2026-05-04 23:19 | 46.29929 | -64.65743 | 5193 ft | 283 kts | 41° |
| 2026-05-04 23:19 | 46.31431 | -64.64101 | 5063 ft | 263 kts | 25° |
| 2026-05-04 23:20 | 46.32961 | -64.62770 | 4927 ft | 251 kts | 24° |
| 2026-05-04 23:20 | 46.34436 | -64.61504 | 4791 ft | 241 kts | 24° |
| 2026-05-04 23:20 | 46.35840 | -64.60279 | 4658 ft | 231 kts | 24° |
| 2026-05-04 23:20 | 46.37192 | -64.59099 | 4455 ft | 224 kts | 24° |
| 2026-05-04 23:21 | 46.38524 | -64.57925 | 4124 ft | 225 kts | 27° |
| 2026-05-04 23:21 | 46.39600 | -64.56252 | 4000 ft | 234 kts | 59° |
| 2026-05-04 23:21 | 46.40022 | -64.53955 | 4014 ft | 241 kts | 90° |
| 2026-05-04 23:21 | 46.39649 | -64.51616 | 4013 ft | 239 kts | 122° |
| 2026-05-04 23:22 | 46.38588 | -64.49834 | 4015 ft | 231 kts | 152° |
| 2026-05-04 23:22 | 46.37149 | -64.48974 | 3847 ft | 217 kts | 181° |
| 2026-05-04 23:22 | 46.35697 | -64.49040 | 3773 ft | 208 kts | 195° |
| 2026-05-04 23:22 | 46.34266 | -64.49254 | 3726 ft | 210 kts | 194° |
| 2026-05-04 23:23 | 46.32792 | -64.49460 | 3679 ft | 210 kts | 194° |
| 2026-05-04 23:23 | 46.31351 | -64.49658 | 3632 ft | 211 kts | 193° |
| 2026-05-04 23:23 | 46.29892 | -64.49854 | 3588 ft | 210 kts | 194° |
| 2026-05-04 23:23 | 46.28441 | -64.50048 | 3539 ft | 209 kts | 194° |
| 2026-05-04 23:24 | 46.26991 | -64.50246 | 3488 ft | 209 kts | 194° |
| 2026-05-04 23:24 | 46.25556 | -64.50493 | 3442 ft | 204 kts | 203° |
| 2026-05-04 23:24 | 46.24312 | -64.51317 | 3345 ft | 193 kts | 224° |
| 2026-05-04 23:24 | 46.23335 | -64.52582 | 3128 ft | 187 kts | 230° |
| 2026-05-04 23:25 | 46.22382 | -64.53851 | 2882 ft | 185 kts | 230° |
| 2026-05-04 23:25 | 46.21451 | -64.55079 | 2648 ft | 178 kts | 229° |
| 2026-05-04 23:25 | 46.20556 | -64.56256 | 2389 ft | 170 kts | 229° |
| 2026-05-04 23:25 | 46.19704 | -64.57379 | 2156 ft | 161 kts | 229° |
| 2026-05-04 23:26 | 46.18916 | -64.58418 | 1936 ft | 146 kts | 229° |
| 2026-05-04 23:26 | 46.18199 | -64.59364 | 1741 ft | 133 kts | 229° |
| 2026-05-04 23:26 | 46.17539 | -64.60233 | 1542 ft | 124 kts | 230° |
| 2026-05-04 23:26 | 46.16917 | -64.61053 | 1425 ft | 120 kts | 229° |
| 2026-05-04 23:27 | 46.16309 | -64.61867 | 1247 ft | 118 kts | 228° |
| 2026-05-04 23:27 | 46.15700 | -64.62659 | 1101 ft | 118 kts | 227° |
| 2026-05-04 23:27 | 46.15093 | -64.63479 | 931 ft | 119 kts | 227° |
| 2026-05-04 23:27 | 46.14480 | -64.64288 | 721 ft | 119 kts | 226° |
| 2026-05-04 23:28 | 46.13880 | -64.65088 | 590 ft | 119 kts | 226° |
| 2026-05-04 23:28 | 46.13278 | -64.65889 | 407 ft | 117 kts | 227° |
| 2026-05-04 23:28 | 46.12674 | -64.66692 | 260 ft | 117 kts | 226° |
| 2026-05-04 23:28 | 46.12117 | -64.67437 | 206 ft | 91 kts | 221° |
| 2026-05-04 23:29 | 46.11772 | -64.67883 | 201 ft | 45 kts | 223° |
| 2026-05-04 23:29 | 46.11572 | -64.68154 | 203 ft | 34 kts | 220° |
| 2026-05-04 23:29 | 46.11412 | -64.68360 | 203 ft | 28 kts | 222° |
| 2026-05-04 23:29 | 46.11330 | -64.68544 | 204 ft | 20 kts | 288° |
| 2026-05-04 23:30 | 46.11393 | -64.68653 | 207 ft | 0 kts | 312° |
| 2026-05-04 23:30 | 46.11398 | -64.68660 | 205 ft | 2 kts | 312° |
| 2026-05-04 23:31 | 46.11410 | -64.68680 | 205 ft | 4 kts | 312° |
| 2026-05-04 23:31 | 46.11466 | -64.68744 | 201 ft | 12 kts | 356° |
| 2026-05-04 23:31 | 46.11528 | -64.68721 | 207 ft | 8 kts | 329° |
| 2026-05-04 23:31 | 46.11560 | -64.68770 | 215 ft | 2 kts | 312° |
| 2026-05-04 23:32 | 46.11562 | -64.68773 | 215 ft | 0 kts | 312° |